createdAt,value
2022-09-25T00:01:42.138Z,11.30
2022-09-25T00:04:08.860Z,11.30
2022-09-25T00:06:35.587Z,11.40
2022-09-25T00:09:02.308Z,12.70
2022-09-25T00:11:30.079Z,11.30
2022-09-25T00:13:57.951Z,11.30
2022-09-25T00:16:25.799Z,11.70
2022-09-25T00:19:11.450Z,12.40
2022-09-25T00:21:38.254Z,11.40
2022-09-25T00:24:06.257Z,11.40
2022-09-25T00:26:34.510Z,11.40
2022-09-25T00:29:01.467Z,13.50
2022-09-25T00:31:28.911Z,11.40
2022-09-25T00:33:57.487Z,12.30
2022-09-25T00:36:24.186Z,11.50
2022-09-25T00:38:50.966Z,11.50
2022-09-25T00:41:19.243Z,11.50
2022-09-25T00:43:49.499Z,11.30
2022-09-25T00:46:16.252Z,11.40
2022-09-25T00:48:48.578Z,11.40
2022-09-25T00:51:16.257Z,11.50
2022-09-25T00:53:42.984Z,11.30
2022-09-25T00:56:11.769Z,11.20
2022-09-25T00:58:39.923Z,11.20
2022-09-25T01:01:07.487Z,11.10
2022-09-25T01:03:35.029Z,11.40
2022-09-25T01:06:02.113Z,11.10
2022-09-25T01:08:30.829Z,11.00
2022-09-25T01:10:57.549Z,11.00
2022-09-25T01:13:24.394Z,11.00
2022-09-25T01:15:51.057Z,11.00
2022-09-25T01:18:26.691Z,11.00
2022-09-25T01:21:25.766Z,11.00
2022-09-25T01:24:13.596Z,11.00
2022-09-25T01:26:49.493Z,10.90
2022-09-25T01:29:22.545Z,10.90
2022-09-25T01:31:55.274Z,10.90
2022-09-25T01:34:40.431Z,10.90
2022-09-25T01:37:12.993Z,10.90
2022-09-25T01:39:43.525Z,10.80
2022-09-25T01:42:22.104Z,11.50
2022-09-25T01:45:00.179Z,10.80
2022-09-25T01:47:28.597Z,10.80
2022-09-25T01:49:57.987Z,10.80
2022-09-25T01:52:28.377Z,10.80
2022-09-25T01:54:56.762Z,10.90
2022-09-25T01:57:41.747Z,12.60
2022-09-25T02:00:10.129Z,10.90
2022-09-25T02:02:40.108Z,11.00
2022-09-25T02:05:09.865Z,11.10
2022-09-25T02:07:40.044Z,11.00
2022-09-25T02:10:09.958Z,11.10
2022-09-25T02:12:43.361Z,11.10
2022-09-25T02:15:11.772Z,11.00
2022-09-25T02:18:00.660Z,10.90
2022-09-25T02:20:31.916Z,10.80
2022-09-25T02:23:17.180Z,10.80
2022-09-25T02:25:56.079Z,10.60
2022-09-25T02:28:23.356Z,10.60
2022-09-25T02:30:56.118Z,10.60
2022-09-25T02:33:22.761Z,10.50
2022-09-25T02:35:49.879Z,10.60
2022-09-25T02:38:16.609Z,10.60
2022-09-25T02:40:55.001Z,10.70
2022-09-25T02:43:40.630Z,10.80
2022-09-25T02:46:33.594Z,10.70
2022-09-25T02:49:23.474Z,10.70
2022-09-25T02:52:05.882Z,10.70
2022-09-25T02:54:41.596Z,10.70
2022-09-25T02:57:12.066Z,10.60
2022-09-25T02:59:42.009Z,10.70
2022-09-25T03:02:11.754Z,10.70
2022-09-25T03:04:39.041Z,10.70
2022-09-25T03:07:06.230Z,12.20
2022-09-25T03:09:35.127Z,10.60
2022-09-25T03:12:03.292Z,10.60
2022-09-25T03:14:29.858Z,11.00
2022-09-25T03:16:57.890Z,12.30
2022-09-25T03:19:28.778Z,10.50
2022-09-25T03:21:58.439Z,10.40
2022-09-25T03:24:26.874Z,10.40
2022-09-25T03:26:53.998Z,10.40
2022-09-25T03:29:20.944Z,10.40
2022-09-25T03:31:48.081Z,11.60
2022-09-25T03:34:15.893Z,10.50
2022-09-25T03:36:42.533Z,10.50
2022-09-25T03:39:10.879Z,8.40
2022-09-25T03:41:37.572Z,10.60
2022-09-25T03:44:04.369Z,11.50
2022-09-25T03:46:34.672Z,10.70
2022-09-25T03:49:01.802Z,10.70
2022-09-25T03:51:29.239Z,10.70
2022-09-25T03:53:56.237Z,10.70
2022-09-25T03:56:24.034Z,10.80
2022-09-25T03:58:51.423Z,10.70
2022-09-25T04:01:19.428Z,10.70
2022-09-25T04:03:47.360Z,10.90
2022-09-25T04:06:18.201Z,10.80
2022-09-25T04:08:45.360Z,12.30
2022-09-25T04:11:12.441Z,10.80
2022-09-25T04:13:44.007Z,10.70
2022-09-25T04:16:11.555Z,10.70
2022-09-25T04:18:38.135Z,10.70
2022-09-25T04:21:07.469Z,10.70
2022-09-25T04:23:34.579Z,11.50
2022-09-25T04:26:01.297Z,11.30
2022-09-25T04:28:29.836Z,10.60
2022-09-25T04:30:56.454Z,10.60
2022-09-25T04:33:41.777Z,10.60
2022-09-25T04:36:08.471Z,11.70
2022-09-25T04:38:35.086Z,10.60
2022-09-25T04:41:02.072Z,10.50
2022-09-25T04:43:29.526Z,10.60
2022-09-25T04:45:56.190Z,10.70
2022-09-25T04:48:22.825Z,10.70
2022-09-25T04:50:50.940Z,10.60
2022-09-25T04:53:17.883Z,10.60
2022-09-25T04:55:46.157Z,10.50
2022-09-25T04:58:12.688Z,10.50
2022-09-25T05:00:40.953Z,10.40
2022-09-25T05:03:07.688Z,10.40
2022-09-25T05:05:35.194Z,11.30
2022-09-25T05:08:02.392Z,10.50
2022-09-25T05:10:34.358Z,10.50
2022-09-25T05:13:01.963Z,10.50
2022-09-25T05:15:29.326Z,11.30
2022-09-25T05:17:59.489Z,10.50
2022-09-25T05:20:26.090Z,10.50
2022-09-25T05:22:56.789Z,10.60
2022-09-25T05:25:25.424Z,10.50
2022-09-25T05:27:54.337Z,12.40
2022-09-25T05:30:20.945Z,10.60
2022-09-25T05:32:49.460Z,11.10
2022-09-25T05:35:17.009Z,11.30
2022-09-25T05:37:43.529Z,10.70
2022-09-25T05:40:10.485Z,12.40
2022-09-25T05:42:37.035Z,10.70
2022-09-25T05:45:07.516Z,10.80
2022-09-25T05:47:34.390Z,10.80
2022-09-25T05:50:01.106Z,10.90
2022-09-25T05:52:27.687Z,10.90
2022-09-25T05:54:54.277Z,11.80
2022-09-25T05:57:20.896Z,11.90
2022-09-25T05:59:48.985Z,11.10
2022-09-25T06:02:16.117Z,11.10
2022-09-25T06:04:42.809Z,11.10
2022-09-25T06:07:10.046Z,11.90
2022-09-25T06:09:36.718Z,11.10
2022-09-25T06:12:03.809Z,13.50
2022-09-25T06:14:30.369Z,12.20
2022-09-25T06:16:58.190Z,11.10
2022-09-25T06:19:24.764Z,11.00
2022-09-25T06:21:51.423Z,11.00
2022-09-25T06:24:18.005Z,11.10
2022-09-25T06:26:44.587Z,11.00
2022-09-25T06:29:11.142Z,11.10
2022-09-25T06:31:39.192Z,11.10
2022-09-25T06:34:06.095Z,11.10
2022-09-25T06:36:33.185Z,11.10
2022-09-25T06:38:59.838Z,11.10
2022-09-25T06:41:26.516Z,12.10
2022-09-25T06:43:53.117Z,12.70
2022-09-25T06:46:20.205Z,11.20
2022-09-25T06:48:57.180Z,12.60
2022-09-25T06:51:24.453Z,11.30
2022-09-25T06:53:54.401Z,11.80
2022-09-25T06:56:21.240Z,11.30
2022-09-25T06:58:47.777Z,11.30
2022-09-25T07:01:14.548Z,12.60
2022-09-25T07:03:48.331Z,11.30
2022-09-25T07:06:19.982Z,11.40
2022-09-25T07:08:48.312Z,11.30
2022-09-25T07:11:16.611Z,12.60
2022-09-25T07:13:43.403Z,11.40
2022-09-25T07:16:14.454Z,11.40
2022-09-25T07:18:41.120Z,11.40
2022-09-25T07:21:08.835Z,11.50
2022-09-25T07:23:35.538Z,12.30
2022-09-25T07:26:06.357Z,11.50
2022-09-25T07:28:33.340Z,11.50
2022-09-25T07:31:00.030Z,11.50
2022-09-25T07:33:26.628Z,11.50
2022-09-25T07:35:53.235Z,13.00
2022-09-25T07:38:19.788Z,11.60
2022-09-25T07:40:46.409Z,13.90
2022-09-25T07:43:13.131Z,14.70
2022-09-25T07:45:39.920Z,11.70
2022-09-25T07:48:06.490Z,11.70
2022-09-25T07:50:33.467Z,11.80
2022-09-25T07:53:00.022Z,11.80
2022-09-25T07:55:28.420Z,11.80
2022-09-25T07:57:58.301Z,12.80
2022-09-25T08:00:24.979Z,11.90
2022-09-25T08:02:58.867Z,11.90
2022-09-25T08:05:26.573Z,11.90
2022-09-25T08:07:53.822Z,12.00
2022-09-25T08:10:21.079Z,12.00
2022-09-25T08:12:47.641Z,12.00
2022-09-25T08:15:14.878Z,12.10
2022-09-25T08:17:41.671Z,12.10
2022-09-25T08:20:08.944Z,12.20
2022-09-25T08:22:35.558Z,12.00
2022-09-25T08:25:03.117Z,12.10
2022-09-25T08:27:30.116Z,12.10
2022-09-25T08:29:56.824Z,12.20
2022-09-25T08:32:23.466Z,13.10
2022-09-25T08:34:50.079Z,12.30
2022-09-25T08:37:17.168Z,13.10
2022-09-25T08:39:43.726Z,14.80
2022-09-25T08:42:15.885Z,12.40
2022-09-25T08:45:02.516Z,13.30
2022-09-25T08:47:49.289Z,12.60
2022-09-25T08:50:20.374Z,12.70
2022-09-25T08:52:48.776Z,12.80
2022-09-25T08:55:46.472Z,12.80
2022-09-25T08:58:15.777Z,12.80
2022-09-25T09:00:42.993Z,13.00
2022-09-25T09:03:10.160Z,13.00
2022-09-25T09:05:40.451Z,13.10
2022-09-25T09:08:11.895Z,13.10
2022-09-25T09:11:13.594Z,13.20
2022-09-25T09:13:44.443Z,13.20
2022-09-25T09:16:26.972Z,13.30
2022-09-25T09:18:54.808Z,13.50
2022-09-25T09:21:30.412Z,13.40
2022-09-25T09:24:06.458Z,13.40
2022-09-25T09:26:44.964Z,13.60
2022-09-25T09:29:31.170Z,13.70
2022-09-25T09:32:00.818Z,13.70
2022-09-25T09:35:05.217Z,13.80
2022-09-25T09:37:32.714Z,13.90
2022-09-25T09:40:18.024Z,13.80
2022-09-25T09:42:51.173Z,13.70
2022-09-25T09:45:28.356Z,13.80
2022-09-25T09:47:58.677Z,14.00
2022-09-25T09:50:51.440Z,13.80
2022-09-25T09:53:25.137Z,13.80
2022-09-25T09:55:53.916Z,13.90
2022-09-25T09:58:26.867Z,14.00
2022-09-25T10:00:53.623Z,14.20
2022-09-25T10:03:20.218Z,14.30
2022-09-25T10:05:48.281Z,15.30
2022-09-25T10:08:15.267Z,15.10
2022-09-25T10:10:43.124Z,15.20
2022-09-25T10:13:24.137Z,16.20
2022-09-25T10:15:57.908Z,14.80
2022-09-25T10:18:40.897Z,14.90
2022-09-25T10:21:15.838Z,15.00
2022-09-25T10:23:52.779Z,15.10
2022-09-25T10:26:38.477Z,15.10
2022-09-25T10:29:25.103Z,15.10
2022-09-25T10:31:58.963Z,15.00
2022-09-25T10:34:27.484Z,14.90
2022-09-25T10:36:54.249Z,15.00
2022-09-25T10:39:46.198Z,14.80
2022-09-25T10:42:34.504Z,14.80
2022-09-25T10:45:15.185Z,14.80
2022-09-25T10:48:01.584Z,15.70
2022-09-25T10:50:28.211Z,14.90
2022-09-25T10:52:59.102Z,15.40
2022-09-25T10:55:30.620Z,15.20
2022-09-25T10:58:15.098Z,15.60
2022-09-25T11:00:51.639Z,15.00
2022-09-25T11:03:21.048Z,15.00
2022-09-25T11:05:50.164Z,14.90
2022-09-25T11:08:19.710Z,15.00
2022-09-25T11:10:51.558Z,15.90
2022-09-25T11:13:24.438Z,15.30
2022-09-25T11:15:53.439Z,15.40
2022-09-25T11:18:49.809Z,16.20
2022-09-25T11:21:18.013Z,15.50
2022-09-25T11:23:53.330Z,15.80
2022-09-25T11:26:21.595Z,16.90
2022-09-25T11:28:52.127Z,15.70
2022-09-25T11:31:25.351Z,15.50
2022-09-25T11:33:51.877Z,15.40
2022-09-25T11:36:31.619Z,15.30
2022-09-25T11:39:27.852Z,15.30
2022-09-25T11:41:57.999Z,15.10
2022-09-25T11:44:43.161Z,15.60
2022-09-25T11:47:17.519Z,15.00
2022-09-25T11:49:48.266Z,14.90
2022-09-25T11:52:18.425Z,15.80
2022-09-25T11:54:57.176Z,14.70
2022-09-25T11:57:42.525Z,14.60
2022-09-25T12:00:26.307Z,14.60
2022-09-25T12:02:52.970Z,14.50
2022-09-25T12:05:52.680Z,14.50
2022-09-25T12:08:37.266Z,14.40
2022-09-25T12:11:27.290Z,14.20
2022-09-25T12:14:03.736Z,14.20
2022-09-25T12:16:45.678Z,14.00
2022-09-25T12:19:12.425Z,13.90
2022-09-25T12:21:56.242Z,13.70
2022-09-25T12:24:40.103Z,13.70
2022-09-25T12:27:13.645Z,13.70
2022-09-25T12:29:49.088Z,13.70
2022-09-25T12:32:41.634Z,13.90
2022-09-25T12:35:15.052Z,14.00
2022-09-25T12:37:46.648Z,14.20
2022-09-25T12:40:16.423Z,14.40
2022-09-25T12:43:02.998Z,14.40
2022-09-25T12:45:32.615Z,14.60
2022-09-25T12:48:17.400Z,14.70
2022-09-25T12:50:55.874Z,14.70
2022-09-25T12:53:37.754Z,14.70
2022-09-25T12:56:24.247Z,14.80
2022-09-25T12:59:10.989Z,14.90
2022-09-25T13:01:37.690Z,15.00
2022-09-25T13:04:23.157Z,15.20
2022-09-25T13:06:52.842Z,15.20
2022-09-25T13:09:36.307Z,15.20
2022-09-25T13:12:05.516Z,15.30
2022-09-25T13:14:35.157Z,15.60
2022-09-25T13:17:02.473Z,15.90
2022-09-25T13:19:30.261Z,15.30
2022-09-25T13:22:00.870Z,15.30
2022-09-25T13:24:27.493Z,15.40
2022-09-25T13:26:55.698Z,15.40
2022-09-25T13:29:28.245Z,15.30
2022-09-25T13:32:08.283Z,15.10
2022-09-25T13:34:38.173Z,15.10
2022-09-25T13:37:06.367Z,15.00
2022-09-25T13:40:11.744Z,15.90
2022-09-25T13:42:46.221Z,14.70
2022-09-25T13:45:22.576Z,14.70
2022-09-25T13:47:49.372Z,14.60
2022-09-25T13:50:29.706Z,14.50
2022-09-25T13:53:17.645Z,14.60
2022-09-25T13:55:50.610Z,14.60
2022-09-25T13:58:20.270Z,14.60
2022-09-25T14:00:50.491Z,14.60
2022-09-25T14:03:35.989Z,14.80
2022-09-25T14:06:05.034Z,14.80
2022-09-25T14:08:32.574Z,15.00
2022-09-25T14:11:01.498Z,15.10
2022-09-25T14:13:28.752Z,15.20
2022-09-25T14:15:57.801Z,15.10
2022-09-25T14:18:54.944Z,15.00
2022-09-25T14:21:22.761Z,15.00
2022-09-25T14:23:53.987Z,15.00
2022-09-25T14:26:22.232Z,15.00
2022-09-25T14:28:50.458Z,15.00
2022-09-25T14:31:27.524Z,14.70
2022-09-25T14:33:54.618Z,14.90
2022-09-25T14:36:35.629Z,14.80
2022-09-25T14:39:18.892Z,14.70
2022-09-25T14:42:05.475Z,14.60
2022-09-25T14:44:36.192Z,14.60
2022-09-25T14:47:03.246Z,14.60
2022-09-25T14:49:39.160Z,14.50
2022-09-25T14:52:08.093Z,14.50
2022-09-25T14:54:36.644Z,15.60
2022-09-25T14:57:06.111Z,14.40
2022-09-25T14:59:42.221Z,14.50
2022-09-25T15:02:16.503Z,14.60
2022-09-25T15:04:43.235Z,14.60
2022-09-25T15:07:22.857Z,14.50
2022-09-25T15:09:50.303Z,14.50
2022-09-25T15:12:17.753Z,14.50
2022-09-25T15:15:13.771Z,14.50
2022-09-25T15:17:47.931Z,14.60
2022-09-25T15:20:17.176Z,14.60
2022-09-25T15:22:46.157Z,14.60
2022-09-25T15:25:16.718Z,16.00
2022-09-25T15:27:43.499Z,14.70
2022-09-25T15:30:14.478Z,14.70
2022-09-25T15:32:41.419Z,14.70
2022-09-25T15:35:18.630Z,15.60
2022-09-25T15:37:46.517Z,14.20
2022-09-25T15:40:19.483Z,12.30
2022-09-25T15:42:47.139Z,13.90
2022-09-25T15:45:32.573Z,14.00
2022-09-25T15:48:00.706Z,14.00
2022-09-25T15:50:28.864Z,14.00
2022-09-25T15:52:56.983Z,14.80
2022-09-25T15:55:23.870Z,15.20
2022-09-25T15:57:52.602Z,14.10
2022-09-25T16:00:43.196Z,13.90
2022-09-25T16:03:31.462Z,14.00
2022-09-25T16:06:00.857Z,13.80
2022-09-25T16:08:29.938Z,13.70
2022-09-25T16:11:04.570Z,13.70
2022-09-25T16:13:33.091Z,13.60
2022-09-25T16:16:00.713Z,14.50
2022-09-25T16:18:32.418Z,13.90
2022-09-25T16:21:11.574Z,12.40
2022-09-25T16:23:39.940Z,13.20
2022-09-25T16:26:14.214Z,13.10
2022-09-25T16:28:46.386Z,13.20
2022-09-25T16:31:13.038Z,13.10
2022-09-25T16:33:47.548Z,14.40
2022-09-25T16:36:17.712Z,13.00
2022-09-25T16:39:03.947Z,13.60
2022-09-25T16:41:30.941Z,13.00
2022-09-25T16:44:14.523Z,13.00
2022-09-25T16:47:05.578Z,13.00
2022-09-25T16:49:33.713Z,13.00
2022-09-25T16:52:02.144Z,13.00
2022-09-25T16:54:31.614Z,12.90
2022-09-25T16:56:58.950Z,13.30
2022-09-25T16:59:27.199Z,12.70
2022-09-25T17:01:58.721Z,12.50
2022-09-25T17:04:27.099Z,12.40
2022-09-25T17:06:57.044Z,12.30
2022-09-25T17:09:31.410Z,12.20
2022-09-25T17:12:12.917Z,12.10
2022-09-25T17:14:39.523Z,12.10
2022-09-25T17:17:06.120Z,12.20
2022-09-25T17:19:32.778Z,12.00
2022-09-25T17:21:59.395Z,12.00
2022-09-25T17:24:26.792Z,12.00
2022-09-25T17:26:53.732Z,11.70
2022-09-25T17:29:20.756Z,11.80
2022-09-25T17:31:47.526Z,11.80
2022-09-25T17:34:24.360Z,12.60
2022-09-25T17:36:51.741Z,11.60
2022-09-25T17:39:18.471Z,12.90
2022-09-25T17:41:45.164Z,11.60
2022-09-25T17:44:18.845Z,12.40
2022-09-25T17:46:45.657Z,11.50
2022-09-25T17:49:12.473Z,12.20
2022-09-25T17:51:39.415Z,12.20
2022-09-25T17:54:06.581Z,11.50
2022-09-25T17:56:34.835Z,11.50
2022-09-25T17:59:02.223Z,11.50
2022-09-25T18:01:31.486Z,11.40
2022-09-25T18:04:01.035Z,11.50
2022-09-25T18:06:28.802Z,11.50
2022-09-25T18:08:56.041Z,11.50
2022-09-25T18:11:23.706Z,11.40
2022-09-25T18:13:54.299Z,11.40
2022-09-25T18:16:22.647Z,11.50
2022-09-25T18:19:08.061Z,11.50
2022-09-25T18:21:53.284Z,11.60
2022-09-25T18:24:19.908Z,11.60
2022-09-25T18:26:46.704Z,11.60
2022-09-25T18:29:17.108Z,11.90
2022-09-25T18:31:44.424Z,11.60
2022-09-25T18:34:11.117Z,12.60
2022-09-25T18:36:37.867Z,12.80
2022-09-25T18:39:04.934Z,11.50
2022-09-25T18:41:31.609Z,11.50
2022-09-25T18:43:58.390Z,11.40
2022-09-25T18:46:25.107Z,12.60
2022-09-25T18:48:53.562Z,11.50
2022-09-25T18:51:20.220Z,12.40
2022-09-25T18:53:51.551Z,11.30
2022-09-25T18:56:18.660Z,11.30
2022-09-25T18:58:49.647Z,11.30
2022-09-25T19:01:16.376Z,11.20
2022-09-25T19:03:43.216Z,11.60
2022-09-25T19:06:09.917Z,11.20
2022-09-25T19:08:36.535Z,11.20
2022-09-25T19:11:03.190Z,11.20
2022-09-25T19:13:29.967Z,11.10
2022-09-25T19:15:58.829Z,11.60
2022-09-25T19:18:25.720Z,11.70
2022-09-25T19:20:55.954Z,11.60
2022-09-25T19:23:23.573Z,11.00
2022-09-25T19:25:58.038Z,11.00
2022-09-25T19:28:25.481Z,11.00
2022-09-25T19:31:02.761Z,11.00
2022-09-25T19:33:30.664Z,11.00
2022-09-25T19:35:58.347Z,11.00
2022-09-25T19:38:25.252Z,11.00
2022-09-25T19:40:51.985Z,11.00
2022-09-25T19:43:18.742Z,11.00
2022-09-25T19:45:49.220Z,11.00
2022-09-25T19:48:15.870Z,10.90
2022-09-25T19:50:42.637Z,12.00
2022-09-25T19:53:09.316Z,10.90
2022-09-25T19:55:40.904Z,10.90
2022-09-25T19:58:08.047Z,11.60
2022-09-25T20:00:34.837Z,10.90
2022-09-25T20:03:01.585Z,10.80
2022-09-25T20:05:28.291Z,11.70
2022-09-25T20:07:54.958Z,10.90
2022-09-25T20:10:21.611Z,12.50
2022-09-25T20:12:48.204Z,10.80
2022-09-25T20:15:14.830Z,11.90
2022-09-25T20:17:41.508Z,10.80
2022-09-25T20:20:08.203Z,11.90
2022-09-25T20:22:34.831Z,10.90
2022-09-25T20:25:01.578Z,11.80
2022-09-25T20:27:28.271Z,10.80
2022-09-25T20:29:54.888Z,11.00
2022-09-25T20:32:21.597Z,11.60
2022-09-25T20:34:48.194Z,10.80
2022-09-25T20:37:14.984Z,12.30
2022-09-25T20:39:41.663Z,10.70
2022-09-25T20:42:09.329Z,10.70
2022-09-25T20:44:36.096Z,10.70
2022-09-25T20:47:02.776Z,10.70
2022-09-25T20:49:30.242Z,11.30
2022-09-25T20:51:56.980Z,10.70
2022-09-25T20:54:25.037Z,10.70
2022-09-25T20:56:52.726Z,10.70
2022-09-25T20:59:21.019Z,11.50
2022-09-25T21:01:47.712Z,10.60
2022-09-25T21:04:17.980Z,10.60
2022-09-25T21:06:44.627Z,10.70
2022-09-25T21:09:18.251Z,11.70
2022-09-25T21:11:44.905Z,10.60
2022-09-25T21:14:13.693Z,10.60
2022-09-25T21:16:40.829Z,10.60
2022-09-25T21:19:07.517Z,11.30
2022-09-25T21:21:34.202Z,11.20
2022-09-25T21:24:02.299Z,10.60
2022-09-25T21:26:29.859Z,10.60
2022-09-25T21:28:58.207Z,11.40
2022-09-25T21:31:26.417Z,10.70
2022-09-25T21:33:53.738Z,10.60
2022-09-25T21:36:21.097Z,10.60
2022-09-25T21:38:48.871Z,10.60
2022-09-25T21:41:16.548Z,10.60
2022-09-25T21:43:43.519Z,10.60
2022-09-25T21:46:18.285Z,11.80
2022-09-25T21:48:49.391Z,10.60
2022-09-25T21:51:16.666Z,10.60
2022-09-25T21:53:43.400Z,11.00
2022-09-25T21:56:11.058Z,11.40
2022-09-25T21:58:37.736Z,10.70
2022-09-25T22:01:09.168Z,10.70
2022-09-25T22:03:38.876Z,10.70
2022-09-25T22:06:07.201Z,11.50
2022-09-25T22:08:34.990Z,10.70
2022-09-25T22:11:02.626Z,10.70
2022-09-25T22:13:30.552Z,10.80
2022-09-25T22:16:05.277Z,10.80
2022-09-25T22:18:33.347Z,10.80
2022-09-25T22:21:00.381Z,10.80
2022-09-25T22:23:26.975Z,10.80
2022-09-25T22:25:53.672Z,10.80
2022-09-25T22:28:20.775Z,11.60
2022-09-25T22:30:47.730Z,11.00
2022-09-25T22:33:14.342Z,11.20
2022-09-25T22:35:40.959Z,11.20
2022-09-25T22:38:07.600Z,11.50
2022-09-25T22:40:37.823Z,12.20
2022-09-25T22:43:04.970Z,11.10
2022-09-25T22:45:32.076Z,8.40
2022-09-25T22:47:59.507Z,11.20
2022-09-25T22:50:29.156Z,11.10
2022-09-25T22:52:58.348Z,11.10
2022-09-25T22:55:26.166Z,11.10
2022-09-25T22:57:52.842Z,11.10
2022-09-25T23:00:19.491Z,11.10
2022-09-25T23:02:46.345Z,11.10
2022-09-25T23:05:13.067Z,11.00
2022-09-25T23:07:39.727Z,11.00
2022-09-25T23:10:06.756Z,12.80
2022-09-25T23:12:33.436Z,11.00
2022-09-25T23:15:00.125Z,11.10
2022-09-25T23:17:26.940Z,11.00
2022-09-25T23:19:53.572Z,11.90
2022-09-25T23:22:20.291Z,11.00
2022-09-25T23:24:46.907Z,11.00
2022-09-25T23:27:13.666Z,10.90
2022-09-25T23:29:40.334Z,12.30
2022-09-25T23:32:08.173Z,10.90
2022-09-25T23:34:34.802Z,11.40
2022-09-25T23:37:01.408Z,10.90
2022-09-25T23:39:28.095Z,10.80
2022-09-25T23:41:54.718Z,10.80
2022-09-25T23:44:21.378Z,10.70
2022-09-25T23:46:48.030Z,10.70
2022-09-25T23:49:14.957Z,10.60
2022-09-25T23:51:41.734Z,10.60
2022-09-25T23:54:09.734Z,10.60
2022-09-25T23:56:36.476Z,10.50
2022-09-25T23:59:04.193Z,11.80
